Time;durP1;ratioP1;P1;durP2;ratioP2;P2;SDS_P1;SDS_P2;PMS_P1;PMS_P2;Temp;Humidity;BMP_temperature;BMP_pressure;BME280_temperature;BME280_humidity;BME280_pressure;Samples;Min_cycle;Max_cycle;Signal;HPM_P1;HPM_P2
2023/09/08 00:02:11;;;;;;;2.92;1.92;;;;;;;21.40;58.11;101152.13;5032592;28;20029;-44
2023/09/08 00:04:38;;;;;;;2.53;1.70;;;;;;;21.39;57.13;101146.97;5032608;28;20021;-43
2023/09/08 00:07:04;;;;;;;3.45;1.60;;;;;;;20.91;58.96;101140.84;5033393;28;20033;-46
2023/09/08 00:09:30;;;;;;;4.30;2.13;;;;;;;20.56;59.95;101147.78;5033339;28;20026;-43
2023/09/08 00:11:57;;;;;;;3.70;1.40;;;;;;;20.70;59.95;101134.50;5032999;28;20025;-45
2023/09/08 00:14:23;;;;;;;9.63;1.83;;;;;;;20.45;60.01;101144.16;5032631;28;20029;-43
2023/09/08 00:16:54;;;;;;;1.60;1.30;;;;;;;20.21;61.98;101142.91;5032651;28;20132;-43
2023/09/08 00:19:21;;;;;;;3.63;1.65;;;;;;;20.12;62.66;101134.47;5033285;28;20022;-43
2023/09/08 00:21:47;;;;;;;3.45;1.60;;;;;;;20.05;62.71;101133.88;5033054;28;20033;-43
2023/09/08 00:24:13;;;;;;;3.33;1.65;;;;;;;19.71;64.87;101134.19;5032497;28;20470;-43
2023/09/08 00:26:40;;;;;;;2.90;1.60;;;;;;;19.58;65.85;101142.72;5032497;28;20040;-44
2023/09/08 00:29:06;;;;;;;3.95;1.40;;;;;;;19.30;66.72;101132.16;5032429;28;20049;-43
2023/09/08 00:31:32;;;;;;;3.30;1.15;;;;;;;19.31;67.38;101128.34;5032733;28;20084;-43
2023/09/08 00:33:59;;;;;;;2.58;1.30;;;;;;;19.22;67.66;101136.16;5032325;28;20394;-44
2023/09/08 00:36:25;;;;;;;2.38;1.30;;;;;;;19.01;68.43;101148.69;5034549;28;20096;-43
2023/09/08 00:38:51;;;;;;;4.47;1.88;;;;;;;18.83;69.06;101147.13;5036361;28;20446;-43
2023/09/08 00:41:18;;;;;;;2.83;1.88;;;;;;;18.73;70.02;101147.81;5036139;28;20021;-44
2023/09/08 00:43:44;;;;;;;3.13;1.50;;;;;;;18.52;70.95;101154.00;5036256;28;20040;-42
2023/09/08 00:46:11;;;;;;;3.47;1.42;;;;;;;18.43;71.87;101159.06;5036348;28;20051;-42
2023/09/08 00:48:38;;;;;;;3.05;1.80;;;;;;;18.28;72.94;101163.44;5036023;28;20378;-44
2023/09/08 00:51:07;;;;;;;5.25;1.60;;;;;;;18.19;73.54;101158.44;5035771;28;20022;-41
2023/09/08 00:53:34;;;;;;;3.85;1.63;;;;;;;17.95;75.16;101157.00;5035726;28;20437;-41
2023/09/08 00:56:01;;;;;;;1.85;1.60;;;;;;;18.04;74.75;101155.50;5036010;28;20036;-41
2023/09/08 00:58:27;;;;;;;3.00;1.55;;;;;;;18.17;74.41;101149.75;5035735;28;20079;-42
2023/09/08 01:00:53;;;;;;;3.25;1.40;;;;;;;18.13;75.50;101151.31;5035704;28;20065;-42
2023/09/08 01:03:20;;;;;;;3.55;1.77;;;;;;;17.81;76.83;101159.19;5035731;28;20087;-42
2023/09/08 01:05:48;;;;;;;3.05;1.80;;;;;;;18.03;76.46;101156.56;5035855;28;20109;-42
2023/09/08 01:08:15;;;;;;;2.53;1.70;;;;;;;18.02;76.32;101151.41;5035662;28;20439;-42
2023/09/08 01:10:42;;;;;;;11.18;2.08;;;;;;;17.82;76.73;101155.44;5035587;28;20018;-42
2023/09/08 01:13:08;;;;;;;11.13;2.75;;;;;;;17.67;77.66;101163.28;5035422;28;20041;-42
2023/09/08 01:15:34;;;;;;;4.05;2.13;;;;;;;17.50;78.28;101160.56;5035426;28;20025;-43
2023/09/08 01:18:01;;;;;;;2.92;2.00;;;;;;;17.56;77.40;101156.88;5035508;28;20037;-42
2023/09/08 01:21:05;;;;;;;20.30;3.08;;;;;;;17.30;79.77;101165.59;5035844;28;20033;-42
2023/09/08 01:23:56;;;;;;;44.90;5.40;;;;;;;17.23;79.56;101171.16;5013711;28;20029;-43
2023/09/08 01:26:29;;;;;;;11.88;3.38;;;;;;;17.27;80.17;101182.34;5034702;28;20033;-44
2023/09/08 01:28:56;;;;;;;2.55;1.65;;;;;;;17.13;80.11;101174.50;5035684;28;20057;-41
2023/09/08 01:31:22;;;;;;;4.15;1.55;;;;;;;17.18;80.43;101170.25;5035303;28;20022;-43
2023/09/08 01:33:49;;;;;;;2.08;1.75;;;;;;;17.10;80.26;101175.00;5035046;28;20116;-42
2023/09/08 01:36:15;;;;;;;3.95;1.40;;;;;;;17.17;80.34;101174.03;5035036;28;20026;-45
2023/09/08 01:38:41;;;;;;;2.78;1.70;;;;;;;16.92;81.72;101175.16;5035096;28;20436;-49
2023/09/08 01:41:07;;;;;;;4.90;1.60;;;;;;;16.91;82.04;101181.63;5034650;28;20021;-43
2023/09/08 01:43:34;;;;;;;3.50;1.50;;;;;;;16.71;82.84;101179.34;5035078;28;20029;-43
2023/09/08 01:46:00;;;;;;;2.15;1.50;;;;;;;16.86;82.76;101178.81;5034713;28;20381;-43
2023/09/08 01:48:27;;;;;;;3.08;1.48;;;;;;;16.88;82.83;101182.94;5033167;28;20029;-43
2023/09/08 01:50:53;;;;;;;3.00;1.30;;;;;;;16.69;84.15;101172.47;5034853;28;20029;-44
2023/09/08 01:53:19;;;;;;;4.70;1.75;;;;;;;16.62;84.83;101186.13;5034983;28;20048;-43
2023/09/08 01:55:45;;;;;;;8.30;2.05;;;;;;;16.76;84.24;101176.72;5034837;28;20026;-44
2023/09/08 01:58:12;;;;;;;6.40;1.52;;;;;;;16.68;85.13;101193.28;5035089;28;20037;-43
2023/09/08 02:00:38;;;;;;;2.55;1.40;;;;;;;16.77;84.57;101182.97;5034700;28;20021;-46
2023/09/08 02:03:04;;;;;;;3.55;1.20;;;;;;;16.72;84.48;101185.56;5035243;28;20389;-43
2023/09/08 02:05:31;;;;;;;3.72;1.30;;;;;;;16.72;85.12;101177.44;5034921;28;20530;-42
2023/09/08 02:07:57;;;;;;;2.42;1.20;;;;;;;16.77;84.67;101189.19;5034707;28;20508;-42
2023/09/08 02:10:23;;;;;;;1.92;1.50;;;;;;;16.88;84.02;101192.94;5034673;28;20037;-42
2023/09/08 02:12:49;;;;;;;2.67;1.23;;;;;;;16.68;85.18;101195.97;5034782;28;20037;-42
2023/09/08 02:15:17;;;;;;;2.60;1.20;;;;;;;16.77;84.61;101185.66;5034730;28;20030;-42
2023/09/08 02:17:43;;;;;;;2.83;1.30;;;;;;;16.79;84.62;101188.94;5034478;28;20397;-42
2023/09/08 02:20:10;;;;;;;1.33;1.10;;;;;;;16.58;85.59;101193.06;5034546;28;20327;-43
2023/09/08 02:22:36;;;;;;;1.38;0.80;;;;;;;16.63;84.93;101190.47;5034388;28;20028;-43
2023/09/08 02:25:03;;;;;;;2.00;1.25;;;;;;;16.51;85.70;101189.66;5034372;28;20021;-43
2023/09/08 02:27:29;;;;;;;2.88;1.70;;;;;;;16.29;87.19;101176.75;5034141;28;20063;-43
2023/09/08 02:29:55;;;;;;;1.80;1.23;;;;;;;16.27;87.28;101175.38;5049666;28;20465;-43
2023/09/08 02:32:22;;;;;;;2.67;1.30;;;;;;;16.21;87.50;101187.09;5034280;28;20033;-43
2023/09/08 02:34:49;;;;;;;2.75;1.23;;;;;;;16.31;86.93;101187.31;5033997;28;20129;-44
2023/09/08 02:37:18;;;;;;;2.45;1.50;;;;;;;16.31;86.17;101181.91;5034383;28;20496;-43
2023/09/08 02:39:44;;;;;;;2.85;1.20;;;;;;;16.05;88.01;101189.44;5033988;28;20056;-45
2023/09/08 02:42:10;;;;;;;3.72;1.33;;;;;;;15.90;88.96;101188.25;5034473;28;20100;-46
2023/09/08 02:44:36;;;;;;;3.00;1.40;;;;;;;15.92;88.75;101189.66;5034728;28;20373;-44
2023/09/08 02:47:03;;;;;;;2.13;1.00;;;;;;;15.77;90.10;101190.13;5033787;28;20025;-43
2023/09/08 02:49:29;;;;;;;3.20;1.45;;;;;;;15.81;89.68;101190.44;5033997;28;20465;-43
2023/09/08 02:51:55;;;;;;;3.15;1.52;;;;;;;15.78;90.22;101199.03;5033816;28;20555;-43
2023/09/08 02:54:22;;;;;;;2.53;1.55;;;;;;;15.55;90.83;101202.47;5033752;28;20044;-43
2023/09/08 02:56:48;;;;;;;3.17;2.08;;;;;;;15.55;91.21;101203.28;5033550;28;20037;-44
2023/09/08 02:59:14;;;;;;;2.63;1.70;;;;;;;15.40;91.98;101205.56;5033597;28;20545;-41
2023/09/08 03:01:40;;;;;;;3.30;1.98;;;;;;;15.37;92.54;101200.63;5033573;28;20036;-42
2023/09/08 03:04:07;;;;;;;2.17;1.50;;;;;;;15.31;93.58;101196.13;5033774;28;20079;-42
2023/09/08 03:06:35;;;;;;;3.45;1.88;;;;;;;15.29;93.75;101206.34;5033364;28;20076;-42
2023/09/08 03:09:01;;;;;;;3.55;2.10;;;;;;;15.40;92.98;101207.44;5033551;28;20469;-43
2023/09/08 03:11:28;;;;;;;1.77;1.30;;;;;;;15.36;93.47;101212.47;5033485;28;20022;-42
2023/09/08 03:13:54;;;;;;;2.33;1.25;;;;;;;15.49;92.34;101219.53;5033078;28;20045;-44
2023/09/08 03:16:20;;;;;;;2.72;2.08;;;;;;;15.30;93.43;101224.16;5033218;28;20033;-43
2023/09/08 03:18:46;;;;;;;2.58;1.67;;;;;;;15.15;94.35;101221.84;5033335;28;20018;-42
2023/09/08 03:21:14;;;;;;;2.70;1.75;;;;;;;15.30;93.32;101224.16;5033313;28;20104;-42
2023/09/08 03:23:42;;;;;;;3.38;1.67;;;;;;;15.35;93.07;101221.63;5033273;28;20032;-43
2023/09/08 03:26:09;;;;;;;3.58;1.70;;;;;;;15.31;93.51;101228.50;5033087;28;20203;-42
2023/09/08 03:28:39;;;;;;;3.15;2.15;;;;;;;15.29;93.86;101233.31;5033082;28;20052;-43
2023/09/08 03:31:06;;;;;;;2.55;1.65;;;;;;;15.39;93.00;101241.69;5033374;28;20026;-42
2023/09/08 03:33:32;;;;;;;2.70;1.70;;;;;;;15.38;92.96;101231.97;5033165;28;20068;-42
2023/09/08 03:35:58;;;;;;;2.63;1.50;;;;;;;15.28;94.02;101231.66;5033635;28;20033;-43
2023/09/08 03:38:25;;;;;;;3.40;1.58;;;;;;;15.28;93.58;101234.38;5033522;28;20017;-43
2023/09/08 03:40:51;;;;;;;5.07;1.92;;;;;;;15.32;94.32;101244.47;5033143;28;20032;-43
2023/09/08 03:43:17;;;;;;;3.03;1.52;;;;;;;15.42;93.39;101243.09;5033123;28;20030;-43
2023/09/08 03:45:44;;;;;;;4.10;2.05;;;;;;;15.40;92.88;101254.13;5033092;28;20028;-43
2023/09/08 03:48:11;;;;;;;5.72;2.17;;;;;;;15.23;94.55;101253.09;5032960;28;20045;-44
2023/09/08 03:50:37;;;;;;;4.07;2.35;;;;;;;15.10;95.99;101253.25;5033036;28;20029;-43
2023/09/08 03:53:03;;;;;;;4.88;2.13;;;;;;;15.20;95.25;101250.84;5033024;28;20090;-42
2023/09/08 03:55:30;;;;;;;5.45;3.22;;;;;;;15.19;94.82;101260.00;5033635;28;20029;-42
2023/09/08 03:57:57;;;;;;;5.43;2.75;;;;;;;15.15;95.34;101261.47;5033107;28;20359;-44
2023/09/08 04:00:23;;;;;;;4.88;2.80;;;;;;;15.19;94.93;101270.78;5032911;28;20021;-43
2023/09/08 04:02:49;;;;;;;5.03;2.83;;;;;;;15.33;94.26;101272.28;5032982;28;20068;-44
2023/09/08 04:05:19;;;;;;;7.63;3.08;;;;;;;15.34;94.39;101267.69;5032957;28;20029;-43
2023/09/08 04:07:46;;;;;;;11.68;3.58;;;;;;;15.25;95.09;101277.97;5032801;28;20044;-43
2023/09/08 04:10:13;;;;;;;5.28;3.17;;;;;;;15.32;94.42;101276.84;5033082;28;20031;-43
2023/09/08 04:12:40;;;;;;;7.63;3.15;;;;;;;15.34;93.79;101284.69;5037222;28;20025;-42
2023/09/08 04:15:07;;;;;;;5.93;3.13;;;;;;;15.23;93.69;101282.78;5036837;28;20032;-42
2023/09/08 04:17:33;;;;;;;6.80;3.33;;;;;;;15.14;93.98;101279.53;5036756;28;20033;-43
2023/09/08 04:19:59;;;;;;;9.02;3.60;;;;;;;15.14;93.98;101278.72;5036695;28;20461;-43
2023/09/08 04:22:26;;;;;;;5.95;3.53;;;;;;;15.11;94.48;101285.41;5036420;28;20056;-43
2023/09/08 04:24:54;;;;;;;8.35;3.95;;;;;;;15.15;94.96;101288.44;5036525;28;20033;-43
2023/09/08 04:27:20;;;;;;;3.72;2.83;;;;;;;15.18;95.07;101302.31;5036489;28;20056;-44
2023/09/08 04:29:46;;;;;;;4.70;3.35;;;;;;;15.16;95.36;101295.50;5035285;28;20032;-46
2023/09/08 04:32:12;;;;;;;10.88;3.72;;;;;;;15.19;94.45;101297.75;5036284;28;20021;-43
2023/09/08 04:34:40;;;;;;;4.85;3.45;;;;;;;15.02;94.37;101297.50;5036203;28;20198;-45
2023/09/08 04:37:06;;;;;;;4.57;3.25;;;;;;;15.09;94.28;101302.81;5036320;28;20056;-44
2023/09/08 04:39:33;;;;;;;5.18;3.83;;;;;;;15.07;94.45;101294.16;5036738;28;20037;-44
2023/09/08 04:42:00;;;;;;;5.20;3.83;;;;;;;15.08;94.72;101287.72;5036492;28;20026;-45
2023/09/08 04:44:27;;;;;;;6.10;3.75;;;;;;;15.08;94.16;101287.72;5036045;28;20018;-42
2023/09/08 04:46:55;;;;;;;7.20;4.07;;;;;;;14.98;94.41;101291.75;5036132;28;20030;-43
2023/09/08 04:49:21;;;;;;;5.28;3.75;;;;;;;15.09;94.14;101289.34;5036068;28;20061;-43
2023/09/08 04:51:47;;;;;;;6.13;4.32;;;;;;;15.09;94.06;101284.78;5036030;28;20026;-43
2023/09/08 04:54:14;;;;;;;6.20;3.95;;;;;;;15.10;94.58;101288.28;5036079;28;20050;-42
2023/09/08 04:56:40;;;;;;;7.90;4.13;;;;;;;15.17;94.09;101281.78;5035982;28;20064;-43
2023/09/08 04:59:07;;;;;;;7.60;5.35;;;;;;;15.01;94.80;101283.22;5035870;28;20047;-44
2023/09/08 05:01:36;;;;;;;7.38;4.70;;;;;;;15.08;94.46;101291.22;5035744;28;20021;-47
2023/09/08 05:04:03;;;;;;;7.45;4.80;;;;;;;15.09;94.73;101278.56;5035875;28;20036;-42
2023/09/08 05:06:29;;;;;;;6.50;4.07;;;;;;;15.14;94.17;101290.31;5035676;28;20037;-43
2023/09/08 05:08:55;;;;;;;7.15;4.63;;;;;;;15.21;93.79;101284.84;5035733;28;20025;-42
2023/09/08 05:11:22;;;;;;;6.15;4.55;;;;;;;15.21;93.91;101287.53;5035839;28;20025;-44
2023/09/08 05:13:48;;;;;;;8.32;5.70;;;;;;;15.16;94.13;101288.25;5035699;28;20048;-43
2023/09/08 05:16:15;;;;;;;7.22;5.20;;;;;;;15.21;94.13;101276.75;5035667;28;20057;-42
2023/09/08 05:18:41;;;;;;;6.72;5.65;;;;;;;15.24;94.00;101284.41;5036284;28;20408;-43
2023/09/08 05:21:08;;;;;;;8.13;5.28;;;;;;;15.18;94.69;101280.75;5035446;28;20496;-42
2023/09/08 05:23:34;;;;;;;7.22;6.07;;;;;;;15.21;94.78;101282.16;5034374;28;20037;-43
2023/09/08 05:26:01;;;;;;;7.88;6.30;;;;;;;15.34;94.32;101279.31;5035459;28;20613;-44
2023/09/08 05:28:27;;;;;;;8.15;5.75;;;;;;;15.27;94.48;101283.97;5035419;28;20034;-42
2023/09/08 05:30:54;;;;;;;8.55;6.07;;;;;;;15.34;94.24;101282.00;5035324;28;20026;-43
2023/09/08 05:33:20;;;;;;;7.57;6.07;;;;;;;15.30;94.08;101289.72;5034996;28;20030;-42
2023/09/08 05:35:47;;;;;;;7.25;6.35;;;;;;;15.20;94.76;101284.03;5035824;28;20025;-42
2023/09/08 05:38:14;;;;;;;10.65;6.25;;;;;;;15.29;94.28;101284.56;5036184;28;20037;-44
2023/09/08 05:40:40;;;;;;;8.05;5.60;;;;;;;15.34;94.30;101289.28;5035361;28;20116;-42
2023/09/08 05:43:07;;;;;;;8.45;6.10;;;;;;;15.22;94.51;101292.72;5034880;28;20363;-43
2023/09/08 05:45:34;;;;;;;9.25;6.28;;;;;;;15.27;94.42;101289.38;5035043;28;20075;-44
2023/09/08 05:48:01;;;;;;;8.40;6.13;;;;;;;15.21;95.43;101298.34;5034884;28;20034;-43
2023/09/08 05:50:27;;;;;;;8.60;6.30;;;;;;;15.32;94.21;101294.88;5034951;28;20025;-42
2023/09/08 05:52:53;;;;;;;9.73;6.28;;;;;;;15.29;94.38;101292.66;5034940;28;20017;-44
2023/09/08 05:55:20;;;;;;;8.75;5.90;;;;;;;15.25;94.75;101297.66;5034749;28;20030;-43
2023/09/08 05:57:47;;;;;;;6.03;4.88;;;;;;;15.22;95.14;101291.91;5034835;28;20505;-44
2023/09/08 06:00:13;;;;;;;9.48;5.38;;;;;;;15.26;94.94;101304.69;5034905;28;20520;-41
2023/09/08 06:02:39;;;;;;;9.35;5.80;;;;;;;15.30;94.15;101302.38;5034641;28;20029;-41
2023/09/08 06:05:06;;;;;;;8.93;5.35;;;;;;;15.25;94.60;101303.06;5034725;28;20049;-41
2023/09/08 06:07:32;;;;;;;7.72;6.22;;;;;;;15.29;94.19;101298.03;5034500;28;20543;-41
2023/09/08 06:09:58;;;;;;;7.13;5.35;;;;;;;15.42;93.35;101294.34;5034495;28;20026;-42
2023/09/08 06:12:24;;;;;;;12.05;6.22;;;;;;;15.34;94.06;101300.88;5034572;28;20105;-42
2023/09/08 06:14:51;;;;;;;8.95;5.57;;;;;;;15.37;93.93;101303.13;5034443;28;20148;-42
2023/09/08 06:17:17;;;;;;;8.40;5.97;;;;;;;15.40;93.81;101294.59;5034375;28;20028;-41
2023/09/08 06:19:43;;;;;;;8.27;5.18;;;;;;;15.37;93.67;101295.03;5034605;28;20053;-41
2023/09/08 06:22:09;;;;;;;5.90;4.88;;;;;;;15.36;94.12;101290.69;5034280;28;20025;-41
2023/09/08 06:24:36;;;;;;;7.45;5.22;;;;;;;15.43;93.10;101294.13;5034376;28;20443;-45
2023/09/08 06:27:02;;;;;;;7.80;5.32;;;;;;;15.35;93.52;101302.53;5034118;28;20401;-42
2023/09/08 06:29:28;;;;;;;10.82;6.05;;;;;;;15.44;93.21;101297.66;5034050;28;20029;-42
2023/09/08 06:31:54;;;;;;;14.25;6.15;;;;;;;15.32;93.49;101298.41;5034172;28;20029;-42
2023/09/08 06:34:22;;;;;;;10.55;5.75;;;;;;;15.34;93.76;101303.59;5033692;28;20128;-46
2023/09/08 06:36:49;;;;;;;8.77;5.40;;;;;;;15.33;93.48;101301.94;5034010;28;20470;-42
2023/09/08 06:39:15;;;;;;;7.93;4.95;;;;;;;15.27;93.93;101289.38;5033989;28;20040;-43
2023/09/08 06:41:41;;;;;;;7.65;4.85;;;;;;;15.32;93.83;101297.56;5033968;28;20026;-42
2023/09/08 06:44:08;;;;;;;9.20;5.22;;;;;;;15.22;93.96;101308.09;5033845;28;20057;-42
2023/09/08 06:46:34;;;;;;;8.00;5.13;;;;;;;15.25;93.83;101307.63;5033887;28;20057;-43
2023/09/08 06:49:00;;;;;;;12.52;5.25;;;;;;;15.23;93.45;101307.03;5033813;28;20489;-43
2023/09/08 06:51:26;;;;;;;10.45;5.28;;;;;;;15.20;93.75;101304.78;5033722;28;20496;-42
2023/09/08 06:53:57;;;;;;;7.95;4.65;;;;;;;15.24;93.41;101303.28;5033715;28;20037;-42
2023/09/08 06:56:24;;;;;;;11.80;5.80;;;;;;;15.19;94.25;101306.66;5033787;28;20025;-42
2023/09/08 06:58:50;;;;;;;9.85;4.82;;;;;;;15.21;94.12;101303.72;5033663;28;20025;-42
2023/09/08 07:01:16;;;;;;;7.88;5.25;;;;;;;15.14;94.18;101306.50;5033634;28;20029;-42
2023/09/08 07:03:42;;;;;;;9.07;4.63;;;;;;;15.17;93.71;101305.25;5033602;28;20030;-42
2023/09/08 07:06:09;;;;;;;6.85;5.13;;;;;;;15.17;93.62;101299.84;5033427;28;20526;-42
2023/09/08 07:08:35;;;;;;;10.40;4.18;;;;;;;15.19;93.35;101306.66;5033609;28;20057;-42
2023/09/08 07:11:01;;;;;;;8.50;4.78;;;;;;;15.26;92.97;101304.69;5033862;28;20021;-42
2023/09/08 07:13:27;;;;;;;9.77;4.47;;;;;;;15.25;92.84;101307.63;5033428;28;20022;-43
2023/09/08 07:15:53;;;;;;;8.32;3.97;;;;;;;15.19;93.02;101308.53;5033649;28;20052;-43
2023/09/08 07:18:20;;;;;;;17.98;4.30;;;;;;;15.30;93.07;101299.69;5033605;28;20385;-43
2023/09/08 07:20:49;;;;;;;5.90;3.95;;;;;;;15.16;93.41;101307.13;5033356;28;20421;-41
2023/09/08 07:23:20;;;;;;;8.45;4.28;;;;;;;15.23;93.50;101305.16;5033177;28;20100;-42
2023/09/08 07:25:49;;;;;;;10.00;4.80;;;;;;;15.02;94.96;101309.13;5033080;28;20026;-43
2023/09/08 07:28:17;;;;;;;10.73;4.68;;;;;;;15.07;94.86;101313.03;5032989;28;20025;-42
2023/09/08 07:30:43;;;;;;;10.23;3.92;;;;;;;15.04;94.79;101309.72;5033295;28;20026;-42
2023/09/08 07:33:10;;;;;;;8.55;4.65;;;;;;;15.16;94.30;101306.31;5033088;28;20033;-42
2023/09/08 07:35:40;;;;;;;8.60;4.30;;;;;;;15.12;94.31;101303.22;5032799;28;20038;-45
2023/09/08 07:38:06;;;;;;;8.43;5.30;;;;;;;15.04;95.02;101308.88;5032990;28;20401;-42
2023/09/08 07:40:35;;;;;;;7.60;4.40;;;;;;;15.02;95.44;101311.81;5032988;28;20442;-42
2023/09/08 07:43:02;;;;;;;11.57;4.15;;;;;;;15.12;94.91;101307.78;5033118;28;20124;-42
2023/09/08 07:45:28;;;;;;;9.23;4.72;;;;;;;15.09;94.26;101309.03;5032294;28;20033;-42
2023/09/08 07:47:55;;;;;;;10.93;4.00;;;;;;;15.18;94.52;101306.88;5032806;28;20030;-43
2023/09/08 07:50:27;;;;;;;10.02;4.65;;;;;;;15.18;94.52;101310.41;5033562;28;20036;-44
2023/09/08 07:52:55;;;;;;;12.38;5.18;;;;;;;15.20;94.70;101308.28;5033524;28;20034;-42
2023/09/08 07:55:23;;;;;;;8.63;4.32;;;;;;;15.21;94.85;101311.81;5032865;28;20064;-42
2023/09/08 07:57:50;;;;;;;8.93;4.18;;;;;;;15.24;94.56;101305.97;5032744;28;20384;-42
2023/09/08 08:00:17;;;;;;;12.85;4.57;;;;;;;15.28;94.35;101307.19;5032736;28;20409;-42
2023/09/08 08:02:47;;;;;;;6.68;3.95;;;;;;;15.22;94.75;101306.22;5032728;28;20026;-42
2023/09/08 08:05:13;;;;;;;10.85;3.95;;;;;;;15.12;95.13;101302.41;5032787;28;20029;-42
2023/09/08 08:07:40;;;;;;;8.88;4.30;;;;;;;15.16;94.88;101309.81;5032608;28;20068;-43
2023/09/08 08:10:07;;;;;;;7.40;4.60;;;;;;;15.09;95.20;101305.53;5032896;28;20429;-42
2023/09/08 08:12:33;;;;;;;9.18;4.35;;;;;;;15.07;95.07;101310.34;5032460;28;20079;-42
2023/09/08 08:15:00;;;;;;;9.02;4.57;;;;;;;15.25;94.18;101302.22;5032617;28;20084;-42
2023/09/08 08:17:27;;;;;;;12.07;4.53;;;;;;;15.18;94.75;101313.09;5032576;28;20041;-42
2023/09/08 08:19:55;;;;;;;11.07;4.60;;;;;;;15.29;94.43;101309.66;5032559;28;20026;-42
2023/09/08 08:22:22;;;;;;;9.23;4.45;;;;;;;15.23;94.74;101304.34;5032580;28;20025;-42
2023/09/08 08:24:48;;;;;;;13.40;4.82;;;;;;;15.23;94.92;101304.34;5032722;28;20078;-42
2023/09/08 08:27:15;;;;;;;12.82;4.97;;;;;;;15.24;94.51;101303.28;5032811;28;20029;-42
2023/09/08 08:29:41;;;;;;;6.63;3.83;;;;;;;15.26;94.35;101298.47;5032854;28;20032;-41
2023/09/08 08:32:07;;;;;;;8.07;4.63;;;;;;;15.27;93.80;101300.16;5032533;28;20078;-42
2023/09/08 08:34:33;;;;;;;10.88;4.85;;;;;;;15.06;94.60;101312.22;5032243;28;20041;-42
2023/09/08 08:37:00;;;;;;;7.22;4.07;;;;;;;15.23;94.03;101315.13;5032423;28;20025;-42
2023/09/08 08:39:26;;;;;;;9.70;4.07;;;;;;;15.26;93.85;101314.66;5032826;28;20025;-42
2023/09/08 08:41:52;;;;;;;8.07;4.55;;;;;;;15.22;94.22;101324.28;5032492;28;20105;-43
2023/09/08 08:44:20;;;;;;;11.13;4.82;;;;;;;15.20;94.81;101318.25;5032450;28;20369;-42
2023/09/08 08:46:47;;;;;;;12.98;5.03;;;;;;;15.18;95.03;101320.38;5032270;28;20033;-42
2023/09/08 08:49:16;;;;;;;11.75;4.50;;;;;;;15.20;95.11;101323.66;5032489;28;20036;-43
2023/09/08 08:51:46;;;;;;;8.02;4.65;;;;;;;15.17;95.13;101316.03;5032203;28;20025;-41
2023/09/08 08:54:13;;;;;;;10.55;4.22;;;;;;;15.16;95.64;101317.09;5032394;28;20381;-43
2023/09/08 08:56:41;;;;;;;13.48;5.10;;;;;;;15.01;95.95;101315.56;5033211;28;20025;-42
2023/09/08 08:59:08;;;;;;;12.73;4.80;;;;;;;15.04;94.72;101317.78;5036105;28;20481;-42
2023/09/08 09:01:35;;;;;;;7.18;3.85;;;;;;;15.14;94.16;101321.84;5036214;28;20029;-43
2023/09/08 09:04:05;;;;;;;9.82;4.68;;;;;;;15.03;93.94;101318.84;5035779;28;20072;-43
2023/09/08 09:06:32;;;;;;;9.45;4.82;;;;;;;15.11;92.95;101320.44;5035617;28;20119;-42
2023/09/08 09:08:59;;;;;;;7.10;4.15;;;;;;;15.08;92.65;101309.28;5035675;28;20036;-44
2023/09/08 09:11:26;;;;;;;9.25;4.80;;;;;;;15.06;92.84;101312.22;5035747;28;20025;-42
2023/09/08 09:13:52;;;;;;;7.40;4.88;;;;;;;14.99;92.75;101304.19;5035624;28;20065;-42
2023/09/08 09:16:18;;;;;;;7.15;4.25;;;;;;;15.08;92.15;101301.19;5035621;28;20025;-41
2023/09/08 09:18:58;;;;;;;7.95;4.93;;;;;;;14.94;93.26;101300.53;5035506;28;20037;-43
2023/09/08 09:21:43;;;;;;;10.70;4.38;;;;;;;15.00;93.28;101308.53;5035301;28;20032;-43
2023/09/08 09:24:17;;;;;;;9.63;4.13;;;;;;;14.97;93.88;101303.56;5035632;28;20028;-42
2023/09/08 09:26:44;;;;;;;11.50;4.25;;;;;;;15.15;94.14;101305.44;5035293;28;20035;-42
2023/09/08 09:29:14;;;;;;;9.02;4.40;;;;;;;15.07;94.30;101310.34;5035323;28;20026;-42
2023/09/08 09:31:54;;;;;;;8.65;4.15;;;;;;;15.01;95.31;101304.78;5035261;28;20432;-41
2023/09/08 09:34:21;;;;;;;9.50;3.90;;;;;;;14.96;95.76;101303.81;5035064;28;20176;-42
2023/09/08 09:36:49;;;;;;;10.20;4.60;;;;;;;14.87;96.03;101299.75;5035400;28;20422;-41
2023/09/08 09:39:20;;;;;;;12.55;4.60;;;;;;;14.93;95.91;101304.25;5034992;28;20025;-44
2023/09/08 09:41:48;;;;;;;8.73;4.30;;;;;;;14.98;95.73;101289.03;5035136;28;20029;-42
2023/09/08 09:44:15;;;;;;;11.40;5.07;;;;;;;14.93;95.44;101302.38;5034960;28;20044;-42
2023/09/08 09:46:46;;;;;;;9.70;4.95;;;;;;;14.93;95.93;101302.38;5035202;28;20017;-41
2023/09/08 09:49:19;;;;;;;8.65;4.43;;;;;;;14.95;95.61;101296.78;5035474;28;20414;-41
2023/09/08 09:51:48;;;;;;;8.95;3.85;;;;;;;14.96;96.01;101310.03;5035048;28;20448;-42
2023/09/08 09:54:15;;;;;;;12.88;4.80;;;;;;;14.86;95.99;101301.63;5035057;28;20416;-42
2023/09/08 09:56:42;;;;;;;10.13;4.57;;;;;;;14.87;97.10;101305.97;5034923;28;20080;-42
2023/09/08 09:59:10;;;;;;;15.10;4.85;;;;;;;14.87;96.60;101311.34;5034786;28;20108;-42
2023/09/08 10:01:38;;;;;;;12.43;4.57;;;;;;;14.91;96.37;101307.16;5034702;28;20029;-41
2023/09/08 10:04:05;;;;;;;12.70;4.70;;;;;;;14.76;97.36;101310.22;5034633;28;20060;-41
2023/09/08 10:06:33;;;;;;;19.92;4.85;;;;;;;14.84;96.93;101309.13;5034551;28;20022;-41
2023/09/08 10:09:08;;;;;;;13.23;4.43;;;;;;;14.90;96.74;101305.53;5034360;28;20492;-42
2023/09/08 10:11:48;;;;;;;8.60;4.10;;;;;;;14.91;96.65;101307.16;5016781;28;20389;-42
2023/09/08 10:14:18;;;;;;;11.98;4.85;;;;;;;14.91;96.72;101303.66;5034417;28;20021;-42
2023/09/08 10:16:49;;;;;;;14.05;5.00;;;;;;;14.83;96.79;101307.47;5034457;28;20076;-41
2023/09/08 10:19:17;;;;;;;12.05;4.63;;;;;;;15.01;95.98;101310.19;5034522;28;20037;-42
2023/09/08 10:21:46;;;;;;;10.25;3.95;;;;;;;14.94;96.22;101306.72;5034327;28;20035;-41
2023/09/08 10:24:29;;;;;;;12.18;4.82;;;;;;;14.87;96.29;101308.66;5034464;28;20029;-42
2023/09/08 10:27:04;;;;;;;9.73;4.18;;;;;;;14.78;97.24;101308.13;5034121;28;20036;-41
2023/09/08 10:29:33;;;;;;;17.98;4.00;;;;;;;14.88;96.99;101313.03;5034174;28;20019;-44
2023/09/08 10:32:00;;;;;;;11.43;4.70;;;;;;;14.82;96.63;101308.50;5034334;28;20099;-44
2023/09/08 10:34:28;;;;;;;11.48;4.18;;;;;;;14.91;96.04;101315.25;5033834;28;20176;-42
2023/09/08 10:36:55;;;;;;;9.98;4.53;;;;;;;14.96;96.13;101314.59;5034072;28;20154;-41
2023/09/08 10:39:35;;;;;;;12.25;4.10;;;;;;;14.91;96.54;101311.72;5034028;28;20506;-44
2023/09/08 10:42:28;;;;;;;16.45;5.22;;;;;;;14.82;96.94;101313.88;5034233;28;20057;-43
2023/09/08 10:45:01;;;;;;;10.25;4.50;;;;;;;14.95;96.40;101319.16;5034004;28;20040;-42
2023/09/08 10:47:41;;;;;;;13.43;5.28;;;;;;;14.85;97.15;101315.31;5033768;28;20499;-43
2023/09/08 10:50:15;;;;;;;10.18;4.47;;;;;;;14.79;97.16;101323.25;5034367;28;20108;-43
2023/09/08 10:52:42;;;;;;;10.05;5.00;;;;;;;14.78;96.71;101318.09;5033893;28;20025;-44
2023/09/08 10:55:08;;;;;;;11.07;4.70;;;;;;;14.83;96.72;101320.13;5033869;28;20067;-43
2023/09/08 10:57:34;;;;;;;9.77;4.07;;;;;;;14.80;96.16;101318.69;5049104;28;20542;-45
2023/09/08 11:00:12;;;;;;;11.45;4.07;;;;;;;14.86;96.33;101315.09;5033660;28;20159;-42
2023/09/08 11:02:48;;;;;;;7.07;4.03;;;;;;;14.77;96.51;101321.84;5033611;28;20026;-42
2023/09/08 11:05:15;;;;;;;12.25;4.45;;;;;;;14.96;96.17;101326.19;5033655;28;20351;-41
2023/09/08 11:07:43;;;;;;;11.13;5.07;;;;;;;14.87;96.18;101326.69;5033777;28;20090;-42
2023/09/08 11:10:11;;;;;;;8.93;4.47;;;;;;;14.74;97.11;101323.09;5033402;28;20030;-42
2023/09/08 11:12:38;;;;;;;12.95;4.95;;;;;;;14.85;96.53;101324.22;5033310;28;20032;-42
2023/09/08 11:15:08;;;;;;;12.27;4.38;;;;;;;14.89;96.49;101324.63;5033392;28;20075;-41
2023/09/08 11:17:41;;;;;;;11.48;4.30;;;;;;;14.75;96.85;101324.72;5033958;28;20099;-42
2023/09/08 11:20:10;;;;;;;10.55;4.28;;;;;;;14.71;97.30;101333.47;5032248;28;20037;-41
2023/09/08 11:22:38;;;;;;;17.75;4.63;;;;;;;14.85;96.27;101324.22;5033348;28;20495;-42
2023/09/08 11:25:07;;;;;;;9.68;4.20;;;;;;;14.83;96.24;101331.72;5033057;28;20030;-42
2023/09/08 11:27:34;;;;;;;9.82;4.25;;;;;;;14.78;95.34;101329.69;5033179;28;20057;-42